sensor_id;sensor_type;location;lat;lon;timestamp;temperature;humidity
1830;DHT22;914;48.118;11.600;2022-08-20T00:02:44;20.50;99.90
1830;DHT22;914;48.118;11.600;2022-08-20T00:05:37;20.10;99.90
1830;DHT22;914;48.118;11.600;2022-08-20T00:08:25;20.30;99.90
1830;DHT22;914;48.118;11.600;2022-08-20T00:10:58;20.40;99.90
1830;DHT22;914;48.118;11.600;2022-08-20T00:13:33;20.20;99.90
1830;DHT22;914;48.118;11.600;2022-08-20T00:16:04;20.50;99.90
1830;DHT22;914;48.118;11.600;2022-08-20T00:18:50;20.50;99.90
1830;DHT22;914;48.118;11.600;2022-08-20T00:21:30;20.60;99.90
1830;DHT22;914;48.118;11.600;2022-08-20T00:27:00;20.40;99.90
1830;DHT22;914;48.118;11.600;2022-08-20T00:29:29;20.60;99.90
1830;DHT22;914;48.118;11.600;2022-08-20T00:32:03;20.50;99.90
1830;DHT22;914;48.118;11.600;2022-08-20T00:34:32;20.40;99.90
1830;DHT22;914;48.118;11.600;2022-08-20T00:37:01;20.60;99.90
1830;DHT22;914;48.118;11.600;2022-08-20T00:39:35;20.60;99.90
1830;DHT22;914;48.118;11.600;2022-08-20T00:42:06;20.60;99.90
1830;DHT22;914;48.118;11.600;2022-08-20T00:44:32;20.40;99.90
1830;DHT22;914;48.118;11.600;2022-08-20T00:47:08;20.50;99.90
1830;DHT22;914;48.118;11.600;2022-08-20T00:49:43;20.40;99.90
1830;DHT22;914;48.118;11.600;2022-08-20T00:52:23;20.40;99.90
1830;DHT22;914;48.118;11.600;2022-08-20T00:54:59;20.30;99.90
1830;DHT22;914;48.118;11.600;2022-08-20T00:58:04;20.50;99.90
1830;DHT22;914;48.118;11.600;2022-08-20T01:00:53;20.40;99.90
1830;DHT22;914;48.118;11.600;2022-08-20T01:03:35;20.50;99.90
1830;DHT22;914;48.118;11.600;2022-08-20T01:06:18;20.50;99.90
1830;DHT22;914;48.118;11.600;2022-08-20T01:08:54;20.50;99.90
1830;DHT22;914;48.118;11.600;2022-08-20T01:11:33;20.40;99.90
1830;DHT22;914;48.118;11.600;2022-08-20T01:14:28;20.40;99.90
1830;DHT22;914;48.118;11.600;2022-08-20T01:17:12;20.40;99.90
1830;DHT22;914;48.118;11.600;2022-08-20T01:26:18;20.60;99.90
1830;DHT22;914;48.118;11.600;2022-08-20T01:29:18;20.40;99.90
1830;DHT22;914;48.118;11.600;2022-08-20T01:31:56;20.40;99.90
1830;DHT22;914;48.118;11.600;2022-08-20T01:34:35;20.20;99.90
1830;DHT22;914;48.118;11.600;2022-08-20T01:37:11;20.30;99.90
1830;DHT22;914;48.118;11.600;2022-08-20T01:40:00;20.40;99.90
1830;DHT22;914;48.118;11.600;2022-08-20T01:42:43;20.30;99.90
1830;DHT22;914;48.118;11.600;2022-08-20T01:45:20;20.40;99.90
1830;DHT22;914;48.118;11.600;2022-08-20T01:48:10;20.40;99.90
1830;DHT22;914;48.118;11.600;2022-08-20T01:50:47;20.50;99.90
1830;DHT22;914;48.118;11.600;2022-08-20T01:57:13;20.30;99.90
1830;DHT22;914;48.118;11.600;2022-08-20T01:59:52;20.30;99.90
1830;DHT22;914;48.118;11.600;2022-08-20T02:03:14;20.30;99.90
1830;DHT22;914;48.118;11.600;2022-08-20T02:12:38;20.30;99.90
1830;DHT22;914;48.118;11.600;2022-08-20T02:15:38;20.30;99.90
1830;DHT22;914;48.118;11.600;2022-08-20T02:22:58;20.50;99.90
1830;DHT22;914;48.118;11.600;2022-08-20T02:28:42;20.10;99.90
1830;DHT22;914;48.118;11.600;2022-08-20T02:31:43;20.00;99.90
1830;DHT22;914;48.118;11.600;2022-08-20T02:34:19;19.90;99.90
1830;DHT22;914;48.118;11.600;2022-08-20T02:36:47;20.10;99.90
1830;DHT22;914;48.118;11.600;2022-08-20T02:58:09;20.00;99.90
1830;DHT22;914;48.118;11.600;2022-08-20T03:00:40;20.20;99.90
1830;DHT22;914;48.118;11.600;2022-08-20T03:03:13;20.10;99.90
1830;DHT22;914;48.118;11.600;2022-08-20T03:05:49;20.10;99.90
1830;DHT22;914;48.118;11.600;2022-08-20T03:08:22;20.10;99.90
1830;DHT22;914;48.118;11.600;2022-08-20T03:10:56;20.10;99.90
1830;DHT22;914;48.118;11.600;2022-08-20T03:13:27;19.90;99.90
1830;DHT22;914;48.118;11.600;2022-08-20T03:16:04;19.90;99.90
1830;DHT22;914;48.118;11.600;2022-08-20T03:18:48;20.00;99.90
1830;DHT22;914;48.118;11.600;2022-08-20T03:21:33;20.10;99.90
1830;DHT22;914;48.118;11.600;2022-08-20T03:24:32;20.10;99.90
1830;DHT22;914;48.118;11.600;2022-08-20T03:27:16;20.00;99.90
1830;DHT22;914;48.118;11.600;2022-08-20T03:29:59;19.90;99.90
1830;DHT22;914;48.118;11.600;2022-08-20T03:32:42;20.10;99.90
1830;DHT22;914;48.118;11.600;2022-08-20T03:35:20;20.00;99.90
1830;DHT22;914;48.118;11.600;2022-08-20T03:37:53;20.00;99.90
1830;DHT22;914;48.118;11.600;2022-08-20T03:40:34;20.10;99.90
1830;DHT22;914;48.118;11.600;2022-08-20T03:43:19;20.20;99.90
1830;DHT22;914;48.118;11.600;2022-08-20T03:49:23;20.10;99.90
1830;DHT22;914;48.118;11.600;2022-08-20T03:52:22;20.10;99.90
1830;DHT22;914;48.118;11.600;2022-08-20T03:55:15;20.10;99.90
1830;DHT22;914;48.118;11.600;2022-08-20T03:57:59;20.10;99.90
1830;DHT22;914;48.118;11.600;2022-08-20T04:01:02;20.10;99.90
1830;DHT22;914;48.118;11.600;2022-08-20T04:03:39;19.80;99.90
1830;DHT22;914;48.118;11.600;2022-08-20T04:06:07;20.00;99.90
1830;DHT22;914;48.118;11.600;2022-08-20T04:08:52;20.00;99.90
1830;DHT22;914;48.118;11.600;2022-08-20T04:11:40;19.80;99.90
1830;DHT22;914;48.118;11.600;2022-08-20T04:14:36;19.90;99.90
1830;DHT22;914;48.118;11.600;2022-08-20T04:17:12;20.10;99.90
1830;DHT22;914;48.118;11.600;2022-08-20T04:19:41;20.10;99.90
1830;DHT22;914;48.118;11.600;2022-08-20T04:22:14;19.90;99.90
1830;DHT22;914;48.118;11.600;2022-08-20T04:25:22;20.10;99.90
1830;DHT22;914;48.118;11.600;2022-08-20T04:28:10;20.00;99.90
1830;DHT22;914;48.118;11.600;2022-08-20T04:31:31;20.00;99.90
1830;DHT22;914;48.118;11.600;2022-08-20T04:34:24;20.10;99.90
1830;DHT22;914;48.118;11.600;2022-08-20T04:36:57;20.10;99.90
1830;DHT22;914;48.118;11.600;2022-08-20T04:39:26;20.10;99.90
1830;DHT22;914;48.118;11.600;2022-08-20T04:42:03;20.10;99.90
1830;DHT22;914;48.118;11.600;2022-08-20T04:52:43;20.00;99.90
1830;DHT22;914;48.118;11.600;2022-08-20T04:59:02;20.30;99.90
1830;DHT22;914;48.118;11.600;2022-08-20T05:01:57;20.20;99.90
1830;DHT22;914;48.118;11.600;2022-08-20T05:04:37;20.20;99.90
1830;DHT22;914;48.118;11.600;2022-08-20T05:07:14;20.20;99.90
1830;DHT22;914;48.118;11.600;2022-08-20T05:09:58;20.10;99.90
1830;DHT22;914;48.118;11.600;2022-08-20T05:12:47;20.20;99.90
1830;DHT22;914;48.118;11.600;2022-08-20T05:15:15;20.30;99.90
1830;DHT22;914;48.118;11.600;2022-08-20T05:17:53;20.10;99.90
1830;DHT22;914;48.118;11.600;2022-08-20T05:20:25;20.10;99.90
1830;DHT22;914;48.118;11.600;2022-08-20T05:23:02;20.10;99.90
1830;DHT22;914;48.118;11.600;2022-08-20T05:25:37;20.10;99.90
1830;DHT22;914;48.118;11.600;2022-08-20T05:28:25;20.30;99.90
1830;DHT22;914;48.118;11.600;2022-08-20T05:31:01;20.20;99.90
1830;DHT22;914;48.118;11.600;2022-08-20T05:33:44;20.30;99.90
1830;DHT22;914;48.118;11.600;2022-08-20T05:46:45;20.30;99.90
1830;DHT22;914;48.118;11.600;2022-08-20T05:49:19;20.50;99.90
1830;DHT22;914;48.118;11.600;2022-08-20T05:51:47;20.40;99.90
1830;DHT22;914;48.118;11.600;2022-08-20T05:54:48;20.40;99.90
1830;DHT22;914;48.118;11.600;2022-08-20T06:00:30;20.20;99.90
1830;DHT22;914;48.118;11.600;2022-08-20T06:03:01;20.40;99.90
1830;DHT22;914;48.118;11.600;2022-08-20T06:05:45;20.40;99.90
1830;DHT22;914;48.118;11.600;2022-08-20T06:08:19;20.50;99.90
1830;DHT22;914;48.118;11.600;2022-08-20T06:15:08;20.60;99.90
1830;DHT22;914;48.118;11.600;2022-08-20T06:21:15;20.60;99.90
1830;DHT22;914;48.118;11.600;2022-08-20T06:23:53;20.80;99.90
1830;DHT22;914;48.118;11.600;2022-08-20T06:31:20;20.90;99.90
1830;DHT22;914;48.118;11.600;2022-08-20T06:33:59;20.80;99.90
1830;DHT22;914;48.118;11.600;2022-08-20T06:40:49;20.80;99.90
1830;DHT22;914;48.118;11.600;2022-08-20T06:43:19;20.70;99.90
1830;DHT22;914;48.118;11.600;2022-08-20T06:45:45;20.80;99.90
1830;DHT22;914;48.118;11.600;2022-08-20T06:48:13;20.80;99.90
1830;DHT22;914;48.118;11.600;2022-08-20T06:50:44;20.80;99.90
1830;DHT22;914;48.118;11.600;2022-08-20T06:53:13;20.80;99.90
1830;DHT22;914;48.118;11.600;2022-08-20T06:55:42;20.90;99.90
1830;DHT22;914;48.118;11.600;2022-08-20T06:58:10;21.00;99.90
1830;DHT22;914;48.118;11.600;2022-08-20T07:00:38;21.10;99.90
1830;DHT22;914;48.118;11.600;2022-08-20T07:03:05;21.10;99.90
1830;DHT22;914;48.118;11.600;2022-08-20T07:05:35;21.10;99.90
1830;DHT22;914;48.118;11.600;2022-08-20T07:08:02;21.10;99.90
1830;DHT22;914;48.118;11.600;2022-08-20T07:10:29;21.10;99.90
1830;DHT22;914;48.118;11.600;2022-08-20T07:12:55;21.00;99.90
1830;DHT22;914;48.118;11.600;2022-08-20T07:15:22;21.00;99.90
1830;DHT22;914;48.118;11.600;2022-08-20T07:18:01;21.10;99.90
1830;DHT22;914;48.118;11.600;2022-08-20T07:20:28;21.20;99.90
1830;DHT22;914;48.118;11.600;2022-08-20T07:22:54;20.90;99.90
1830;DHT22;914;48.118;11.600;2022-08-20T07:25:21;20.90;99.90
1830;DHT22;914;48.118;11.600;2022-08-20T07:27:48;21.00;99.90
1830;DHT22;914;48.118;11.600;2022-08-20T07:30:18;21.00;99.90
1830;DHT22;914;48.118;11.600;2022-08-20T07:33:02;20.90;99.90
1830;DHT22;914;48.118;11.600;2022-08-20T07:35:27;20.90;99.90
1830;DHT22;914;48.118;11.600;2022-08-20T07:37:54;21.00;99.90
1830;DHT22;914;48.118;11.600;2022-08-20T07:40:24;21.00;99.90
1830;DHT22;914;48.118;11.600;2022-08-20T07:42:53;21.10;99.90
1830;DHT22;914;48.118;11.600;2022-08-20T07:45:19;21.30;99.90
1830;DHT22;914;48.118;11.600;2022-08-20T07:47:45;21.40;99.90
1830;DHT22;914;48.118;11.600;2022-08-20T07:50:14;21.00;99.90
1830;DHT22;914;48.118;11.600;2022-08-20T07:52:40;21.20;99.90
1830;DHT22;914;48.118;11.600;2022-08-20T07:55:09;21.20;99.90
1830;DHT22;914;48.118;11.600;2022-08-20T07:57:36;21.20;99.90
1830;DHT22;914;48.118;11.600;2022-08-20T08:00:03;21.10;99.90
1830;DHT22;914;48.118;11.600;2022-08-20T08:02:29;21.30;99.90
1830;DHT22;914;48.118;11.600;2022-08-20T08:04:55;21.10;99.90
1830;DHT22;914;48.118;11.600;2022-08-20T08:07:21;21.20;99.90
1830;DHT22;914;48.118;11.600;2022-08-20T08:09:48;21.30;99.90
1830;DHT22;914;48.118;11.600;2022-08-20T08:12:14;21.60;99.90
1830;DHT22;914;48.118;11.600;2022-08-20T08:14:43;21.70;99.90
1830;DHT22;914;48.118;11.600;2022-08-20T08:17:10;21.60;99.90
1830;DHT22;914;48.118;11.600;2022-08-20T08:19:46;21.70;99.90
1830;DHT22;914;48.118;11.600;2022-08-20T08:22:15;21.80;99.90
1830;DHT22;914;48.118;11.600;2022-08-20T08:24:42;21.70;99.90
1830;DHT22;914;48.118;11.600;2022-08-20T08:27:09;21.50;99.90
1830;DHT22;914;48.118;11.600;2022-08-20T08:29:36;21.40;99.90
1830;DHT22;914;48.118;11.600;2022-08-20T08:32:03;21.70;99.90
1830;DHT22;914;48.118;11.600;2022-08-20T08:34:30;21.60;99.90
1830;DHT22;914;48.118;11.600;2022-08-20T08:36:56;21.40;99.90
1830;DHT22;914;48.118;11.600;2022-08-20T08:39:23;21.50;99.90
1830;DHT22;914;48.118;11.600;2022-08-20T08:41:50;21.60;99.90
1830;DHT22;914;48.118;11.600;2022-08-20T08:44:23;21.30;99.90
1830;DHT22;914;48.118;11.600;2022-08-20T08:47:18;21.30;99.90
1830;DHT22;914;48.118;11.600;2022-08-20T08:49:46;21.30;99.90
1830;DHT22;914;48.118;11.600;2022-08-20T08:52:20;21.20;99.90
1830;DHT22;914;48.118;11.600;2022-08-20T08:54:49;21.10;99.90
1830;DHT22;914;48.118;11.600;2022-08-20T08:57:16;21.20;99.90
1830;DHT22;914;48.118;11.600;2022-08-20T08:59:44;21.30;99.90
1830;DHT22;914;48.118;11.600;2022-08-20T09:02:17;21.30;99.90
1830;DHT22;914;48.118;11.600;2022-08-20T09:04:44;21.20;99.90
1830;DHT22;914;48.118;11.600;2022-08-20T09:07:13;21.10;99.90
1830;DHT22;914;48.118;11.600;2022-08-20T09:09:43;21.20;99.90
1830;DHT22;914;48.118;11.600;2022-08-20T09:12:22;21.20;99.90
1830;DHT22;914;48.118;11.600;2022-08-20T09:14:50;21.30;99.90
1830;DHT22;914;48.118;11.600;2022-08-20T09:17:17;21.30;99.90
1830;DHT22;914;48.118;11.600;2022-08-20T09:19:43;21.30;99.90
1830;DHT22;914;48.118;11.600;2022-08-20T09:22:13;21.40;99.90
1830;DHT22;914;48.118;11.600;2022-08-20T09:24:40;21.30;99.90
1830;DHT22;914;48.118;11.600;2022-08-20T09:27:06;21.40;99.90
1830;DHT22;914;48.118;11.600;2022-08-20T09:29:32;21.50;99.90
1830;DHT22;914;48.118;11.600;2022-08-20T09:32:13;21.50;99.90
1830;DHT22;914;48.118;11.600;2022-08-20T09:34:42;21.40;99.90
1830;DHT22;914;48.118;11.600;2022-08-20T09:37:08;21.40;99.90
1830;DHT22;914;48.118;11.600;2022-08-20T09:39:35;21.50;99.90
1830;DHT22;914;48.118;11.600;2022-08-20T09:42:17;21.40;99.90
1830;DHT22;914;48.118;11.600;2022-08-20T09:44:44;21.40;99.90
1830;DHT22;914;48.118;11.600;2022-08-20T09:47:10;21.50;99.90
1830;DHT22;914;48.118;11.600;2022-08-20T09:49:36;21.40;99.90
1830;DHT22;914;48.118;11.600;2022-08-20T09:52:03;21.50;99.90
1830;DHT22;914;48.118;11.600;2022-08-20T09:54:31;21.40;99.90
1830;DHT22;914;48.118;11.600;2022-08-20T09:57:01;21.40;99.90
1830;DHT22;914;48.118;11.600;2022-08-20T09:59:27;21.40;99.90
1830;DHT22;914;48.118;11.600;2022-08-20T10:01:55;21.40;99.90
1830;DHT22;914;48.118;11.600;2022-08-20T10:04:21;21.40;99.90
1830;DHT22;914;48.118;11.600;2022-08-20T10:06:46;21.50;99.90
1830;DHT22;914;48.118;11.600;2022-08-20T10:09:12;21.50;99.90
1830;DHT22;914;48.118;11.600;2022-08-20T10:11:38;21.50;99.90
1830;DHT22;914;48.118;11.600;2022-08-20T10:14:03;21.60;99.90
1830;DHT22;914;48.118;11.600;2022-08-20T10:16:30;21.50;99.90
1830;DHT22;914;48.118;11.600;2022-08-20T10:18:56;21.50;99.90
1830;DHT22;914;48.118;11.600;2022-08-20T10:21:22;21.50;99.90
1830;DHT22;914;48.118;11.600;2022-08-20T10:23:48;21.50;99.90
1830;DHT22;914;48.118;11.600;2022-08-20T10:26:17;21.60;99.90
1830;DHT22;914;48.118;11.600;2022-08-20T10:28:43;21.60;99.90
1830;DHT22;914;48.118;11.600;2022-08-20T10:31:11;21.70;99.90
1830;DHT22;914;48.118;11.600;2022-08-20T10:33:38;21.60;99.90
1830;DHT22;914;48.118;11.600;2022-08-20T10:36:11;21.70;99.90
1830;DHT22;914;48.118;11.600;2022-08-20T10:38:37;21.70;99.90
1830;DHT22;914;48.118;11.600;2022-08-20T10:41:04;21.80;99.90
1830;DHT22;914;48.118;11.600;2022-08-20T10:43:30;21.90;99.90
1830;DHT22;914;48.118;11.600;2022-08-20T10:45:57;21.80;99.90
1830;DHT22;914;48.118;11.600;2022-08-20T10:48:23;21.90;99.90
1830;DHT22;914;48.118;11.600;2022-08-20T10:50:49;22.00;99.90
1830;DHT22;914;48.118;11.600;2022-08-20T10:53:16;22.10;99.90
1830;DHT22;914;48.118;11.600;2022-08-20T10:55:42;22.20;99.90
1830;DHT22;914;48.118;11.600;2022-08-20T10:58:08;22.30;99.90
1830;DHT22;914;48.118;11.600;2022-08-20T11:00:37;22.40;99.90
1830;DHT22;914;48.118;11.600;2022-08-20T11:03:03;22.30;99.90
1830;DHT22;914;48.118;11.600;2022-08-20T11:05:28;22.30;99.90
1830;DHT22;914;48.118;11.600;2022-08-20T11:07:54;22.30;99.90
1830;DHT22;914;48.118;11.600;2022-08-20T11:10:20;22.20;99.90
1830;DHT22;914;48.118;11.600;2022-08-20T11:12:46;22.30;99.90
1830;DHT22;914;48.118;11.600;2022-08-20T11:15:13;22.20;99.90
1830;DHT22;914;48.118;11.600;2022-08-20T11:17:41;22.20;99.90
1830;DHT22;914;48.118;11.600;2022-08-20T11:20:08;22.20;99.90
1830;DHT22;914;48.118;11.600;2022-08-20T11:22:35;22.20;99.90
1830;DHT22;914;48.118;11.600;2022-08-20T11:25:02;22.20;99.90
1830;DHT22;914;48.118;11.600;2022-08-20T11:27:32;22.20;99.90
1830;DHT22;914;48.118;11.600;2022-08-20T11:29:58;22.10;99.90
1830;DHT22;914;48.118;11.600;2022-08-20T11:32:23;22.10;99.90
1830;DHT22;914;48.118;11.600;2022-08-20T11:34:50;22.00;99.90
1830;DHT22;914;48.118;11.600;2022-08-20T11:37:17;22.00;99.90
1830;DHT22;914;48.118;11.600;2022-08-20T11:39:44;22.10;99.90
1830;DHT22;914;48.118;11.600;2022-08-20T11:42:09;22.20;99.90
1830;DHT22;914;48.118;11.600;2022-08-20T11:44:36;22.30;99.90
1830;DHT22;914;48.118;11.600;2022-08-20T11:47:04;22.40;99.90
1830;DHT22;914;48.118;11.600;2022-08-20T11:49:34;22.60;99.90
1830;DHT22;914;48.118;11.600;2022-08-20T11:52:00;22.90;99.90
1830;DHT22;914;48.118;11.600;2022-08-20T11:54:27;23.10;99.90
1830;DHT22;914;48.118;11.600;2022-08-20T11:56:57;23.10;99.90
1830;DHT22;914;48.118;11.600;2022-08-20T11:59:24;23.10;99.90
1830;DHT22;914;48.118;11.600;2022-08-20T12:01:50;23.20;99.90
1830;DHT22;914;48.118;11.600;2022-08-20T12:04:18;23.20;99.90
1830;DHT22;914;48.118;11.600;2022-08-20T12:06:44;23.30;99.90
1830;DHT22;914;48.118;11.600;2022-08-20T12:09:10;23.40;99.90
1830;DHT22;914;48.118;11.600;2022-08-20T12:11:35;23.50;99.90
1830;DHT22;914;48.118;11.600;2022-08-20T12:14:01;23.50;99.90
1830;DHT22;914;48.118;11.600;2022-08-20T12:16:27;23.50;99.90
1830;DHT22;914;48.118;11.600;2022-08-20T12:18:52;23.50;99.90
1830;DHT22;914;48.118;11.600;2022-08-20T12:21:18;23.40;99.90
1830;DHT22;914;48.118;11.600;2022-08-20T12:23:44;23.20;99.90
1830;DHT22;914;48.118;11.600;2022-08-20T12:26:10;23.00;99.90
1830;DHT22;914;48.118;11.600;2022-08-20T12:28:36;23.00;99.90
1830;DHT22;914;48.118;11.600;2022-08-20T12:31:02;23.10;99.90
1830;DHT22;914;48.118;11.600;2022-08-20T12:33:28;23.00;99.90
1830;DHT22;914;48.118;11.600;2022-08-20T12:35:53;23.00;99.90
1830;DHT22;914;48.118;11.600;2022-08-20T12:38:19;23.00;99.90
1830;DHT22;914;48.118;11.600;2022-08-20T12:40:45;23.20;99.90
1830;DHT22;914;48.118;11.600;2022-08-20T12:43:10;23.50;99.90
1830;DHT22;914;48.118;11.600;2022-08-20T12:45:36;23.80;99.90
1830;DHT22;914;48.118;11.600;2022-08-20T12:48:06;24.40;99.90
1830;DHT22;914;48.118;11.600;2022-08-20T12:50:33;24.70;99.90
1830;DHT22;914;48.118;11.600;2022-08-20T12:53:00;25.20;99.90
1830;DHT22;914;48.118;11.600;2022-08-20T12:55:26;25.60;99.90
1830;DHT22;914;48.118;11.600;2022-08-20T12:57:54;25.90;99.90
1830;DHT22;914;48.118;11.600;2022-08-20T13:00:32;26.30;99.90
1830;DHT22;914;48.118;11.600;2022-08-20T13:03:00;26.60;99.90
1830;DHT22;914;48.118;11.600;2022-08-20T13:05:26;26.70;99.90
1830;DHT22;914;48.118;11.600;2022-08-20T13:07:52;26.30;99.90
1830;DHT22;914;48.118;11.600;2022-08-20T13:10:30;26.00;99.90
1830;DHT22;914;48.118;11.600;2022-08-20T13:12:57;25.80;99.90
1830;DHT22;914;48.118;11.600;2022-08-20T13:15:23;25.80;99.90
1830;DHT22;914;48.118;11.600;2022-08-20T13:17:53;25.60;99.90
1830;DHT22;914;48.118;11.600;2022-08-20T13:20:20;25.40;99.90
1830;DHT22;914;48.118;11.600;2022-08-20T13:22:45;25.30;99.90
1830;DHT22;914;48.118;11.600;2022-08-20T13:25:14;25.10;99.90
1830;DHT22;914;48.118;11.600;2022-08-20T13:27:41;25.00;99.90
1830;DHT22;914;48.118;11.600;2022-08-20T13:30:11;24.90;99.90
1830;DHT22;914;48.118;11.600;2022-08-20T13:32:37;24.90;99.90
1830;DHT22;914;48.118;11.600;2022-08-20T13:35:03;24.90;99.90
1830;DHT22;914;48.118;11.600;2022-08-20T13:37:29;25.10;99.90
1830;DHT22;914;48.118;11.600;2022-08-20T13:39:56;24.90;99.90
1830;DHT22;914;48.118;11.600;2022-08-20T13:42:22;24.90;99.90
1830;DHT22;914;48.118;11.600;2022-08-20T13:44:48;24.90;99.90
1830;DHT22;914;48.118;11.600;2022-08-20T13:49:43;25.20;99.90
1830;DHT22;914;48.118;11.600;2022-08-20T13:52:09;25.60;99.90
1830;DHT22;914;48.118;11.600;2022-08-20T13:54:34;25.70;99.90
1830;DHT22;914;48.118;11.600;2022-08-20T13:57:05;25.70;99.90
1830;DHT22;914;48.118;11.600;2022-08-20T13:59:40;25.70;99.90
1830;DHT22;914;48.118;11.600;2022-08-20T14:02:08;25.60;99.90
1830;DHT22;914;48.118;11.600;2022-08-20T14:04:34;25.50;99.90
1830;DHT22;914;48.118;11.600;2022-08-20T14:07:13;25.50;99.90
1830;DHT22;914;48.118;11.600;2022-08-20T14:09:47;25.50;99.90
1830;DHT22;914;48.118;11.600;2022-08-20T14:12:14;25.50;99.90
1830;DHT22;914;48.118;11.600;2022-08-20T14:14:40;25.40;99.90
1830;DHT22;914;48.118;11.600;2022-08-20T14:17:22;25.30;99.90
1830;DHT22;914;48.118;11.600;2022-08-20T14:19:55;25.00;99.90
1830;DHT22;914;48.118;11.600;2022-08-20T14:22:23;24.60;99.90
1830;DHT22;914;48.118;11.600;2022-08-20T14:24:49;24.20;99.90
1830;DHT22;914;48.118;11.600;2022-08-20T14:27:17;23.80;99.90
1830;DHT22;914;48.118;11.600;2022-08-20T14:29:44;23.60;99.90
1830;DHT22;914;48.118;11.600;2022-08-20T14:32:11;23.50;99.90
1830;DHT22;914;48.118;11.600;2022-08-20T14:34:37;23.30;99.90
1830;DHT22;914;48.118;11.600;2022-08-20T14:37:16;23.40;99.90
1830;DHT22;914;48.118;11.600;2022-08-20T14:39:44;23.30;99.90
1830;DHT22;914;48.118;11.600;2022-08-20T14:42:10;23.10;99.90
1830;DHT22;914;48.118;11.600;2022-08-20T14:44:36;23.20;99.90
1830;DHT22;914;48.118;11.600;2022-08-20T14:49:38;23.00;99.90
1830;DHT22;914;48.118;11.600;2022-08-20T14:52:04;22.70;99.90
1830;DHT22;914;48.118;11.600;2022-08-20T14:54:30;22.30;99.90
1830;DHT22;914;48.118;11.600;2022-08-20T14:56:59;22.00;99.90
1830;DHT22;914;48.118;11.600;2022-08-20T14:59:25;22.00;99.90
1830;DHT22;914;48.118;11.600;2022-08-20T15:01:50;21.40;99.90
1830;DHT22;914;48.118;11.600;2022-08-20T15:04:16;21.20;99.90
1830;DHT22;914;48.118;11.600;2022-08-20T15:06:47;21.10;99.90
1830;DHT22;914;48.118;11.600;2022-08-20T15:09:13;21.10;99.90
1830;DHT22;914;48.118;11.600;2022-08-20T15:11:38;20.80;99.90
1830;DHT22;914;48.118;11.600;2022-08-20T15:14:09;20.30;99.90
1830;DHT22;914;48.118;11.600;2022-08-20T15:16:36;19.90;99.90
1830;DHT22;914;48.118;11.600;2022-08-20T15:19:02;19.40;99.90
1830;DHT22;914;48.118;11.600;2022-08-20T15:21:28;19.10;99.90
1830;DHT22;914;48.118;11.600;2022-08-20T15:23:54;18.80;99.90
1830;DHT22;914;48.118;11.600;2022-08-20T15:26:20;19.00;99.90
1830;DHT22;914;48.118;11.600;2022-08-20T15:28:45;18.80;99.90
1830;DHT22;914;48.118;11.600;2022-08-20T15:31:12;18.80;99.90
1830;DHT22;914;48.118;11.600;2022-08-20T15:33:39;18.70;99.90
1830;DHT22;914;48.118;11.600;2022-08-20T15:36:07;18.40;99.90
1830;DHT22;914;48.118;11.600;2022-08-20T15:38:34;18.60;99.90
1830;DHT22;914;48.118;11.600;2022-08-20T15:41:00;18.90;99.90
1830;DHT22;914;48.118;11.600;2022-08-20T15:43:27;19.20;99.90
1830;DHT22;914;48.118;11.600;2022-08-20T15:45:53;19.20;99.90
1830;DHT22;914;48.118;11.600;2022-08-20T15:48:20;19.30;99.90
1830;DHT22;914;48.118;11.600;2022-08-20T15:51:08;19.30;99.90
1830;DHT22;914;48.118;11.600;2022-08-20T16:01:56;19.40;99.90
1830;DHT22;914;48.118;11.600;2022-08-20T16:10:33;19.40;99.90
1830;DHT22;914;48.118;11.600;2022-08-20T16:13:02;19.60;99.90
1830;DHT22;914;48.118;11.600;2022-08-20T16:15:33;19.40;99.90
1830;DHT22;914;48.118;11.600;2022-08-20T16:18:07;19.50;99.90
1830;DHT22;914;48.118;11.600;2022-08-20T16:23:06;19.70;99.90
1830;DHT22;914;48.118;11.600;2022-08-20T16:25:43;19.80;99.90
1830;DHT22;914;48.118;11.600;2022-08-20T16:28:25;19.90;99.90
1830;DHT22;914;48.118;11.600;2022-08-20T16:31:04;19.90;99.90
1830;DHT22;914;48.118;11.600;2022-08-20T16:33:35;19.90;99.90
1830;DHT22;914;48.118;11.600;2022-08-20T16:36:12;20.00;99.90
1830;DHT22;914;48.118;11.600;2022-08-20T16:38:44;20.00;99.90
1830;DHT22;914;48.118;11.600;2022-08-20T16:41:14;20.00;99.90
1830;DHT22;914;48.118;11.600;2022-08-20T16:43:51;20.00;99.90
1830;DHT22;914;48.118;11.600;2022-08-20T16:46:25;20.10;99.90
1830;DHT22;914;48.118;11.600;2022-08-20T16:48:54;20.00;99.90
1830;DHT22;914;48.118;11.600;2022-08-20T16:51:37;20.00;99.90
1830;DHT22;914;48.118;11.600;2022-08-20T16:54:06;20.00;99.90
1830;DHT22;914;48.118;11.600;2022-08-20T16:56:49;20.10;99.90
1830;DHT22;914;48.118;11.600;2022-08-20T16:59:21;20.10;99.90
1830;DHT22;914;48.118;11.600;2022-08-20T17:02:01;20.10;99.90
1830;DHT22;914;48.118;11.600;2022-08-20T17:04:27;20.10;99.90
1830;DHT22;914;48.118;11.600;2022-08-20T17:06:53;20.10;99.90
1830;DHT22;914;48.118;11.600;2022-08-20T17:09:36;20.10;99.90
1830;DHT22;914;48.118;11.600;2022-08-20T17:12:24;20.20;99.90
1830;DHT22;914;48.118;11.600;2022-08-20T17:14:54;20.20;99.90
1830;DHT22;914;48.118;11.600;2022-08-20T17:19:57;20.30;99.90
1830;DHT22;914;48.118;11.600;2022-08-20T17:22:25;20.30;99.90
1830;DHT22;914;48.118;11.600;2022-08-20T17:24:52;20.30;99.90
1830;DHT22;914;48.118;11.600;2022-08-20T17:30:09;20.30;99.90
1830;DHT22;914;48.118;11.600;2022-08-20T17:32:48;20.40;99.90
1830;DHT22;914;48.118;11.600;2022-08-20T17:35:21;20.30;99.90
1830;DHT22;914;48.118;11.600;2022-08-20T17:37:52;20.30;99.90
1830;DHT22;914;48.118;11.600;2022-08-20T17:40:40;20.30;99.90
1830;DHT22;914;48.118;11.600;2022-08-20T17:43:24;20.20;99.90
1830;DHT22;914;48.118;11.600;2022-08-20T17:45:50;20.20;99.90
1830;DHT22;914;48.118;11.600;2022-08-20T17:48:23;20.10;99.90
1830;DHT22;914;48.118;11.600;2022-08-20T17:50:49;20.10;99.90
1830;DHT22;914;48.118;11.600;2022-08-20T17:55:59;20.30;99.90
1830;DHT22;914;48.118;11.600;2022-08-20T17:58:50;20.20;99.90
1830;DHT22;914;48.118;11.600;2022-08-20T18:01:17;20.00;99.90
1830;DHT22;914;48.118;11.600;2022-08-20T18:03:49;20.10;99.90
1830;DHT22;914;48.118;11.600;2022-08-20T18:06:25;20.10;99.90
1830;DHT22;914;48.118;11.600;2022-08-20T18:08:59;20.10;99.90
1830;DHT22;914;48.118;11.600;2022-08-20T18:11:39;20.10;99.90
1830;DHT22;914;48.118;11.600;2022-08-20T18:14:30;20.20;99.90
1830;DHT22;914;48.118;11.600;2022-08-20T18:17:32;20.20;99.90
1830;DHT22;914;48.118;11.600;2022-08-20T18:23:10;20.10;99.90
1830;DHT22;914;48.118;11.600;2022-08-20T18:30:56;20.20;99.90
1830;DHT22;914;48.118;11.600;2022-08-20T18:36:04;20.30;99.90
1830;DHT22;914;48.118;11.600;2022-08-20T18:38:31;20.30;99.90
1830;DHT22;914;48.118;11.600;2022-08-20T18:41:09;20.30;99.90
1830;DHT22;914;48.118;11.600;2022-08-20T18:43:35;20.30;99.90
1830;DHT22;914;48.118;11.600;2022-08-20T18:46:19;20.30;99.90
1830;DHT22;914;48.118;11.600;2022-08-20T18:48:50;20.30;99.90
1830;DHT22;914;48.118;11.600;2022-08-20T18:51:20;20.30;99.90